createdAt,value
2022-10-13T00:02:44.659Z,15.33
2022-10-13T00:06:45.925Z,14.33
2022-10-13T00:10:49.724Z,15.40
2022-10-13T00:14:50.898Z,17.00
2022-10-13T00:18:52.091Z,13.40
2022-10-13T00:22:53.279Z,12.20
2022-10-13T00:26:54.764Z,11.80
2022-10-13T00:30:56.230Z,13.03
2022-10-13T00:34:57.447Z,17.57
2022-10-13T00:38:58.667Z,18.70
2022-10-13T00:43:09.060Z,14.13
2022-10-13T00:47:19.755Z,16.47
2022-10-13T00:51:28.813Z,21.20
2022-10-13T00:55:35.849Z,17.17
2022-10-13T00:59:38.555Z,19.47
2022-10-13T01:03:39.830Z,18.17
2022-10-13T01:07:40.933Z,19.00
2022-10-13T01:12:01.301Z,16.47
2022-10-13T01:16:18.518Z,14.70
2022-10-13T01:20:49.162Z,16.67
2022-10-13T01:25:08.683Z,14.83
2022-10-13T01:29:16.762Z,24.33
2022-10-13T01:33:21.682Z,19.70
2022-10-13T01:37:35.234Z,20.17
2022-10-13T01:41:39.440Z,19.40
2022-10-13T01:45:44.455Z,21.53
2022-10-13T01:49:46.749Z,20.87
2022-10-13T01:53:49.042Z,21.27
2022-10-13T01:57:50.220Z,21.67
2022-10-13T02:02:07.772Z,26.60
2022-10-13T02:06:15.759Z,16.63
2022-10-13T02:10:30.042Z,17.83
2022-10-13T02:14:34.436Z,17.97
2022-10-13T02:18:36.327Z,22.83
2022-10-13T02:22:44.361Z,27.00
2022-10-13T02:26:46.075Z,26.33
2022-10-13T02:30:48.215Z,27.17
2022-10-13T02:34:50.215Z,38.40
2022-10-13T02:38:51.394Z,33.37
2022-10-13T02:42:52.576Z,31.10
2022-10-13T02:46:53.654Z,33.57
2022-10-13T02:50:54.723Z,37.73
2022-10-13T02:54:55.937Z,36.37
2022-10-13T02:58:57.123Z,34.60
2022-10-13T03:02:58.623Z,29.13
2022-10-13T03:06:59.825Z,23.07
2022-10-13T03:11:01.510Z,32.13
2022-10-13T03:15:03.327Z,24.67
2022-10-13T03:19:04.526Z,23.90
2022-10-13T03:23:06.517Z,27.93
2022-10-13T03:27:08.189Z,26.87
2022-10-13T03:31:11.079Z,20.20
2022-10-13T03:35:12.477Z,26.27
2022-10-13T03:39:13.569Z,27.30
2022-10-13T03:43:14.665Z,31.80
2022-10-13T03:47:15.771Z,34.43
2022-10-13T03:51:19.071Z,40.67
2022-10-13T03:55:20.140Z,38.20
2022-10-13T03:59:21.241Z,38.80
2022-10-13T04:03:23.832Z,28.90
2022-10-13T04:07:25.025Z,28.07
2022-10-13T04:11:26.127Z,25.30
2022-10-13T04:15:27.230Z,26.20
2022-10-13T04:19:28.331Z,39.17
2022-10-13T04:23:29.517Z,25.73
2022-10-13T04:27:30.614Z,24.70
2022-10-13T04:31:32.307Z,36.90
2022-10-13T04:35:33.798Z,29.33
2022-10-13T04:39:34.989Z,26.03
2022-10-13T04:43:36.376Z,23.87
2022-10-13T04:47:38.970Z,30.63
2022-10-13T04:51:40.068Z,28.70
2022-10-13T04:55:41.146Z,31.97
2022-10-13T04:59:42.239Z,23.27
2022-10-13T05:03:43.423Z,22.73
2022-10-13T05:07:44.528Z,30.40
2022-10-13T05:11:45.732Z,19.80
2022-10-13T05:15:47.233Z,22.57
2022-10-13T05:19:49.005Z,22.33
2022-10-13T05:23:52.425Z,24.47
2022-10-13T05:27:53.498Z,30.33
2022-10-13T05:31:54.600Z,32.30
2022-10-13T05:35:59.502Z,31.37
2022-10-13T05:40:00.905Z,29.83
2022-10-13T05:44:05.564Z,30.20
2022-10-13T05:48:06.737Z,31.47
2022-10-13T05:52:11.631Z,31.03
2022-10-13T05:56:16.636Z,36.50
2022-10-13T06:00:19.239Z,29.33
2022-10-13T06:04:24.287Z,28.63
2022-10-13T06:08:25.779Z,28.10
2022-10-13T06:12:26.967Z,30.60
2022-10-13T06:16:28.039Z,36.80
2022-10-13T06:20:29.156Z,37.20
2022-10-13T06:24:30.539Z,37.13
2022-10-13T06:28:31.765Z,48.47
2022-10-13T06:32:33.055Z,28.77
2022-10-13T06:36:34.234Z,22.77
2022-10-13T06:40:35.348Z,24.10
2022-10-13T06:44:36.526Z,28.50
2022-10-13T06:48:37.917Z,30.20
2022-10-13T06:52:39.094Z,24.53
2022-10-13T06:56:40.290Z,25.73
2022-10-13T07:00:41.885Z,24.53
2022-10-13T07:04:43.083Z,26.33
2022-10-13T07:08:44.457Z,23.87
2022-10-13T07:12:45.981Z,24.13
2022-10-13T07:16:47.954Z,25.80
2022-10-13T07:20:49.051Z,25.40
2022-10-13T07:24:50.227Z,34.77
2022-10-13T07:28:52.395Z,25.00
2022-10-13T07:32:53.709Z,27.70
2022-10-13T07:36:54.824Z,27.40
2022-10-13T07:40:57.927Z,27.37
2022-10-13T07:44:59.123Z,25.07
2022-10-13T07:49:00.214Z,26.40
2022-10-13T07:53:01.762Z,27.30
2022-10-13T07:57:03.019Z,24.27
2022-10-13T08:01:04.654Z,25.17
2022-10-13T08:05:06.137Z,26.87
2022-10-13T08:09:08.732Z,27.70
2022-10-13T08:13:11.309Z,22.53
2022-10-13T08:17:12.392Z,25.70
2022-10-13T08:21:45.732Z,28.50
2022-10-13T08:25:19.883Z,27.57
2022-10-13T08:29:22.866Z,30.20
2022-10-13T08:33:25.356Z,33.23
2022-10-13T08:37:26.461Z,34.90
2022-10-13T08:41:39.920Z,34.83
2022-10-13T08:45:42.334Z,35.63
2022-10-13T08:49:45.494Z,24.63
2022-10-13T08:53:48.191Z,31.27
2022-10-13T08:57:49.483Z,28.90
2022-10-13T09:01:54.955Z,28.73
2022-10-13T09:06:12.059Z,29.70
2022-10-13T09:10:14.762Z,32.53
2022-10-13T09:14:26.604Z,29.57
2022-10-13T09:18:31.169Z,32.00
2022-10-13T09:22:36.867Z,31.63
2022-10-13T09:26:38.664Z,33.20
2022-10-13T09:30:41.972Z,29.20
2022-10-13T09:34:43.075Z,29.30
2022-10-13T09:38:47.973Z,31.13
2022-10-13T09:42:52.074Z,28.23
2022-10-13T09:46:56.466Z,26.73
2022-10-13T09:50:58.534Z,32.50
2022-10-13T09:55:00.302Z,30.63
2022-10-13T09:59:23.267Z,31.07
2022-10-13T10:03:31.617Z,31.73
2022-10-13T10:07:33.310Z,29.77
2022-10-13T10:11:38.327Z,31.10
2022-10-13T10:15:51.950Z,27.83
2022-10-13T10:19:57.068Z,29.93
2022-10-13T10:24:18.959Z,76.27
2022-10-13T10:28:36.358Z,29.47
2022-10-13T10:33:02.899Z,37.87
2022-10-13T10:37:22.785Z,29.47
2022-10-13T10:41:42.235Z,35.80
2022-10-13T10:45:45.436Z,34.53
2022-10-13T10:49:47.431Z,35.27
2022-10-13T10:54:04.333Z,35.97
2022-10-13T10:58:24.124Z,35.60
2022-10-13T11:02:52.209Z,36.87
2022-10-13T11:06:53.465Z,35.53
2022-10-13T11:11:26.710Z,62.57
2022-10-13T11:15:40.527Z,31.93
2022-10-13T11:19:41.693Z,29.30
2022-10-13T11:23:47.563Z,24.90
2022-10-13T11:27:48.885Z,26.57
2022-10-13T11:31:54.508Z,21.80
2022-10-13T11:35:56.495Z,22.77
2022-10-13T11:40:04.089Z,25.77
2022-10-13T11:44:19.132Z,25.37
2022-10-13T11:48:59.808Z,20.20
2022-10-13T11:53:16.709Z,24.73
2022-10-13T11:57:21.407Z,25.47
2022-10-13T12:01:22.485Z,19.93
2022-10-13T12:05:26.822Z,22.70
2022-10-13T12:09:30.809Z,20.10
2022-10-13T12:13:33.325Z,18.80
2022-10-13T12:17:35.320Z,22.00
2022-10-13T12:21:40.283Z,23.80
2022-10-13T12:25:45.261Z,21.27
2022-10-13T12:29:46.781Z,19.90
2022-10-13T12:33:53.269Z,18.87
2022-10-13T12:37:55.568Z,18.83
2022-10-13T12:41:58.561Z,18.70
2022-10-13T12:45:59.776Z,18.63
2022-10-13T12:50:21.969Z,20.10
2022-10-13T12:54:26.709Z,17.67
2022-10-13T12:58:30.999Z,20.73
2022-10-13T13:02:32.710Z,17.67
2022-10-13T13:06:36.859Z,21.17
2022-10-13T13:10:41.852Z,19.63
2022-10-13T13:14:47.470Z,20.37
2022-10-13T13:18:50.163Z,20.47
2022-10-13T13:22:51.357Z,19.23
2022-10-13T13:26:52.936Z,18.07
2022-10-13T13:30:54.040Z,19.60
2022-10-13T13:34:55.150Z,22.40
2022-10-13T13:38:56.331Z,18.10
2022-10-13T13:42:57.420Z,21.73
2022-10-13T13:46:58.607Z,24.90
2022-10-13T13:51:00.036Z,19.63
2022-10-13T13:55:01.118Z,20.57
2022-10-13T13:59:02.300Z,20.20
2022-10-13T14:03:04.096Z,21.30
2022-10-13T14:07:05.298Z,20.17
2022-10-13T14:11:06.901Z,21.57
2022-10-13T14:15:09.345Z,22.77
2022-10-13T14:19:10.633Z,21.03
2022-10-13T14:23:11.826Z,24.40
2022-10-13T14:27:12.950Z,20.90
2022-10-13T14:31:14.550Z,24.90
2022-10-13T14:35:15.906Z,21.73
2022-10-13T14:39:17.186Z,20.60
2022-10-13T14:43:18.442Z,21.83
2022-10-13T14:47:19.889Z,21.70
2022-10-13T14:51:21.304Z,22.67
2022-10-13T14:55:22.492Z,22.83
2022-10-13T14:59:23.605Z,24.00
2022-10-13T15:03:26.719Z,26.93
2022-10-13T15:07:29.159Z,25.17
2022-10-13T15:11:30.367Z,24.80
2022-10-13T15:15:32.771Z,22.87
2022-10-13T15:19:34.014Z,23.43
2022-10-13T15:23:35.272Z,22.60
2022-10-13T15:27:41.891Z,22.30
2022-10-13T15:31:43.061Z,19.87
2022-10-13T15:35:49.893Z,20.07
2022-10-13T15:39:56.070Z,21.67
2022-10-13T15:43:53.964Z,19.03
2022-10-13T15:47:56.969Z,21.53
2022-10-13T15:51:58.235Z,21.13
2022-10-13T15:56:01.858Z,22.10
2022-10-13T16:00:05.800Z,21.27
2022-10-13T16:04:06.988Z,26.73
2022-10-13T16:08:08.277Z,22.87
2022-10-13T16:12:09.765Z,21.23
2022-10-13T16:16:11.161Z,20.47
2022-10-13T16:20:12.255Z,22.40
2022-10-13T16:24:13.471Z,21.90
2022-10-13T16:28:14.687Z,29.70
2022-10-13T16:32:15.963Z,26.80
2022-10-13T16:36:18.742Z,26.43
2022-10-13T16:40:19.840Z,24.50
2022-10-13T16:44:21.125Z,24.60
2022-10-13T16:48:22.563Z,26.57
2022-10-13T16:52:23.740Z,25.90
2022-10-13T16:56:26.661Z,29.00
2022-10-13T17:00:27.912Z,27.07
2022-10-13T17:04:30.153Z,22.20
2022-10-13T17:08:31.449Z,25.70
2022-10-13T17:12:33.140Z,26.87
2022-10-13T17:16:35.246Z,31.20
2022-10-13T17:20:36.438Z,30.23
2022-10-13T17:24:37.642Z,32.03
2022-10-13T17:28:39.594Z,31.80
2022-10-13T17:32:40.905Z,33.67
2022-10-13T17:36:41.995Z,32.37
2022-10-13T17:40:43.181Z,35.00
2022-10-13T17:44:44.394Z,33.80
2022-10-13T17:48:45.681Z,33.87
2022-10-13T17:52:46.770Z,29.27
2022-10-13T17:56:48.654Z,27.47
2022-10-13T18:01:12.004Z,30.17
2022-10-13T18:04:53.346Z,29.93
2022-10-13T18:08:54.444Z,29.80
2022-10-13T18:12:55.609Z,29.87
2022-10-13T18:16:56.713Z,28.90
2022-10-13T18:21:00.687Z,27.37
2022-10-13T18:25:01.792Z,30.73
2022-10-13T18:29:06.193Z,29.47
2022-10-13T18:33:07.307Z,29.33
2022-10-13T18:37:09.099Z,26.50
2022-10-13T18:41:10.287Z,24.30
2022-10-13T18:45:11.517Z,25.30
2022-10-13T18:49:14.426Z,29.67
2022-10-13T18:53:15.603Z,27.47
2022-10-13T18:57:16.798Z,30.83
2022-10-13T19:01:21.018Z,28.10
2022-10-13T19:05:22.188Z,28.60
2022-10-13T19:09:24.884Z,26.50
2022-10-13T19:13:27.081Z,33.23
2022-10-13T19:17:28.260Z,29.33
2022-10-13T19:21:29.665Z,29.40
2022-10-13T19:25:30.946Z,28.97
2022-10-13T19:29:34.047Z,32.57
2022-10-13T19:33:35.543Z,34.30
2022-10-13T19:37:37.325Z,36.20
2022-10-13T19:41:38.714Z,27.17
2022-10-13T19:45:50.925Z,26.17
2022-10-13T19:49:52.591Z,21.57
2022-10-13T19:53:53.691Z,21.27
2022-10-13T19:57:54.797Z,17.70
2022-10-13T20:01:56.787Z,13.83
2022-10-13T20:05:57.994Z,13.30
2022-10-13T20:09:59.170Z,16.80
2022-10-13T20:14:00.535Z,14.70
2022-10-13T20:18:01.619Z,14.67
2022-10-13T20:22:02.803Z,17.33
2022-10-13T20:26:05.990Z,14.87
2022-10-13T20:30:07.971Z,15.17
2022-10-13T20:34:09.666Z,13.00
2022-10-13T20:38:10.858Z,15.33
2022-10-13T20:42:13.524Z,11.50
2022-10-13T20:46:16.325Z,11.30
2022-10-13T20:50:17.489Z,12.30
2022-10-13T20:54:18.587Z,10.43
2022-10-13T20:58:19.655Z,12.30
2022-10-13T21:02:20.777Z,11.07
2022-10-13T21:06:23.865Z,14.63
2022-10-13T21:10:25.158Z,13.63
2022-10-13T21:14:26.353Z,14.93
2022-10-13T21:18:27.451Z,15.07
2022-10-13T21:22:28.623Z,13.20
2022-10-13T21:26:31.025Z,13.93
2022-10-13T21:30:32.983Z,14.20
2022-10-13T21:34:34.184Z,14.50
2022-10-13T21:38:35.754Z,13.33
2022-10-13T21:42:36.944Z,13.20
2022-10-13T21:46:38.107Z,19.07
2022-10-13T21:50:39.271Z,17.20
2022-10-13T21:54:40.859Z,16.70
2022-10-13T21:58:42.274Z,13.97
2022-10-13T22:02:43.453Z,14.70
2022-10-13T22:06:44.751Z,15.67
2022-10-13T22:10:45.932Z,15.77
2022-10-13T22:14:47.165Z,17.47
2022-10-13T22:18:51.242Z,20.27
2022-10-13T22:22:52.547Z,16.73
2022-10-13T22:26:53.843Z,17.30
2022-10-13T22:30:55.022Z,21.00
2022-10-13T22:34:56.197Z,19.43
2022-10-13T22:39:00.568Z,22.20
2022-10-13T22:43:01.759Z,16.70
2022-10-13T22:47:02.886Z,21.67
2022-10-13T22:51:05.142Z,21.37
2022-10-13T22:55:07.427Z,25.93
2022-10-13T22:59:08.984Z,26.50
2022-10-13T23:03:12.902Z,24.03
2022-10-13T23:07:14.227Z,21.13
2022-10-13T23:11:16.727Z,27.43
2022-10-13T23:15:17.900Z,24.70
2022-10-13T23:19:20.114Z,27.20
2022-10-13T23:23:21.354Z,20.20
2022-10-13T23:27:23.003Z,22.63
2022-10-13T23:31:25.922Z,21.67
2022-10-13T23:35:27.178Z,23.77
2022-10-13T23:39:28.983Z,23.83
2022-10-13T23:43:30.181Z,25.80
2022-10-13T23:47:31.274Z,23.93
2022-10-13T23:51:32.349Z,23.80
2022-10-13T23:55:38.444Z,22.57
2022-10-13T23:59:39.609Z,21.07
